createdAt,value
2019-04-14T00:01:37.552Z,55.13
2019-04-14T00:05:45.091Z,51.17
2019-04-14T00:09:52.105Z,53.07
2019-04-14T00:13:58.932Z,52.77
2019-04-14T00:18:07.521Z,53.43
2019-04-14T00:22:14.304Z,54.20
2019-04-14T00:26:31.537Z,53.77
2019-04-14T00:30:38.492Z,51.40
2019-04-14T00:35:04.362Z,54.67
2019-04-14T00:39:27.274Z,58.53
2019-04-14T00:43:50.534Z,56.67
2019-04-14T00:48:20.865Z,59.13
2019-04-14T00:52:27.713Z,61.43
2019-04-14T00:56:34.655Z,57.80
2019-04-14T01:00:41.355Z,62.20
2019-04-14T01:04:49.129Z,62.13
2019-04-14T01:08:55.917Z,60.40
2019-04-14T01:13:02.789Z,57.73
2019-04-14T01:17:09.530Z,61.13
2019-04-14T01:21:17.359Z,60.00
2019-04-14T01:25:24.395Z,55.67
2019-04-14T01:29:31.984Z,57.00
2019-04-14T01:33:40.018Z,58.37
2019-04-14T01:37:46.998Z,60.57
2019-04-14T01:41:54.329Z,61.13
2019-04-14T01:46:09.697Z,61.50
2019-04-14T01:50:10.515Z,60.93
2019-04-14T01:54:43.554Z,60.27
2019-04-14T01:58:53.444Z,61.53
2019-04-14T02:03:00.181Z,61.13
2019-04-14T02:07:08.128Z,57.43
2019-04-14T02:11:15.862Z,57.57
2019-04-14T02:15:22.693Z,57.40
2019-04-14T02:19:30.559Z,59.40
2019-04-14T02:23:38.578Z,58.87
2019-04-14T02:27:45.365Z,58.47
2019-04-14T02:32:30.077Z,62.40
2019-04-14T02:40:47.372Z,60.80
2019-04-14T02:44:45.928Z,58.63
2019-04-14T02:48:55.492Z,57.63
2019-04-14T02:53:09.122Z,58.00
2019-04-14T02:57:12.474Z,58.10
2019-04-14T03:01:23.911Z,53.90
2019-04-14T03:05:26.459Z,55.27
2019-04-14T03:13:58.571Z,54.20
2019-04-14T03:18:35.603Z,56.23
2019-04-14T03:22:37.078Z,58.33
2019-04-14T03:27:10.136Z,53.30
2019-04-14T03:31:38.009Z,54.50
2019-04-14T03:35:50.963Z,52.47
2019-04-14T03:43:36.859Z,53.33
2019-04-14T03:48:02.107Z,54.53
2019-04-14T03:51:59.607Z,53.30
2019-04-14T03:56:37.868Z,53.60
2019-04-14T04:00:44.588Z,50.60
2019-04-14T04:04:51.367Z,48.30
2019-04-14T04:08:59.843Z,50.37
2019-04-14T04:13:06.654Z,50.27
2019-04-14T04:17:47.283Z,48.53
2019-04-14T04:22:19.332Z,47.03
2019-04-14T04:26:51.788Z,51.10
2019-04-14T04:31:26.505Z,49.17
2019-04-14T04:35:40.047Z,50.00
2019-04-14T04:39:47.647Z,49.47
2019-04-14T04:43:54.379Z,47.00
2019-04-14T04:48:02.315Z,47.73
2019-04-14T04:52:12.318Z,46.90
2019-04-14T04:56:18.681Z,45.00
2019-04-14T05:00:26.635Z,44.30
2019-04-14T05:04:33.504Z,43.40
2019-04-14T05:08:45.867Z,43.47
2019-04-14T05:13:10.068Z,42.17
2019-04-14T05:17:19.046Z,41.57
2019-04-14T05:21:25.832Z,43.07
2019-04-14T05:25:32.535Z,41.93
2019-04-14T05:29:39.275Z,41.73
2019-04-14T05:33:46.869Z,42.27
2019-04-14T05:37:55.072Z,39.63
2019-04-14T05:42:09.093Z,41.23
2019-04-14T05:46:12.073Z,39.97
2019-04-14T05:50:18.880Z,39.30
2019-04-14T05:54:25.797Z,38.47
2019-04-14T05:58:32.547Z,38.83
2019-04-14T06:02:39.963Z,42.00
2019-04-14T06:06:46.987Z,37.57
2019-04-14T06:10:53.686Z,38.20
2019-04-14T06:15:00.377Z,37.40
2019-04-14T06:19:07.389Z,36.03
2019-04-14T06:23:14.166Z,34.93
2019-04-14T06:27:20.999Z,41.50
2019-04-14T06:31:36.307Z,33.37
2019-04-14T06:35:56.263Z,35.60
2019-04-14T06:40:07.222Z,31.80
2019-04-14T06:44:14.102Z,36.23
2019-04-14T06:48:22.510Z,29.27
2019-04-14T06:52:29.470Z,33.63
2019-04-14T06:56:36.140Z,32.47
2019-04-14T07:00:42.852Z,30.00
2019-04-14T07:04:49.673Z,29.73
2019-04-14T07:08:56.634Z,29.57
2019-04-14T07:13:04.315Z,29.53
2019-04-14T07:17:11.042Z,29.30
2019-04-14T07:21:17.661Z,30.70
2019-04-14T07:25:24.434Z,27.93
2019-04-14T07:29:37.913Z,25.83
2019-04-14T07:34:02.213Z,28.17
2019-04-14T07:38:13.443Z,27.67
2019-04-14T07:42:37.007Z,26.70
2019-04-14T07:47:11.741Z,25.03
2019-04-14T07:51:31.579Z,27.97
2019-04-14T07:56:00.159Z,25.57
2019-04-14T08:00:14.968Z,23.97
2019-04-14T08:04:26.709Z,25.50
2019-04-14T08:08:33.530Z,23.73
2019-04-14T08:12:40.787Z,27.53
2019-04-14T08:16:48.115Z,26.87
2019-04-14T08:20:55.081Z,26.77
2019-04-14T08:25:02.236Z,24.83
2019-04-14T08:29:10.026Z,22.73
2019-04-14T08:33:16.907Z,21.33
2019-04-14T08:37:23.722Z,21.43
2019-04-14T08:41:36.920Z,19.40
2019-04-14T08:45:52.474Z,19.83
2019-04-14T08:50:39.307Z,21.23
2019-04-14T08:54:57.648Z,18.50
2019-04-14T08:59:26.177Z,19.97
2019-04-14T09:03:54.852Z,19.60
2019-04-14T09:08:24.543Z,18.73
2019-04-14T09:12:34.505Z,19.33
2019-04-14T09:16:41.469Z,18.63
2019-04-14T09:20:52.415Z,18.97
2019-04-14T09:24:57.107Z,21.30
2019-04-14T09:29:04.032Z,20.60
2019-04-14T09:33:11.028Z,18.27
2019-04-14T09:37:17.901Z,19.90
2019-04-14T09:41:24.821Z,19.17
2019-04-14T09:45:31.707Z,18.00
2019-04-14T09:49:38.387Z,20.00
2019-04-14T09:53:45.175Z,19.23
2019-04-14T09:57:53.728Z,19.03
2019-04-14T10:02:00.739Z,21.37
2019-04-14T10:06:07.549Z,19.27
2019-04-14T10:10:14.601Z,18.53
2019-04-14T10:14:21.476Z,18.93
2019-04-14T10:18:28.379Z,18.50
2019-04-14T10:22:35.337Z,18.50
2019-04-14T10:26:42.062Z,18.77
2019-04-14T10:30:49.117Z,18.10
2019-04-14T10:34:55.937Z,17.80
2019-04-14T10:39:04.394Z,16.70
2019-04-14T10:43:11.785Z,18.10
2019-04-14T10:47:18.518Z,17.17
2019-04-14T10:51:30.346Z,19.50
2019-04-14T10:55:33.878Z,16.40
2019-04-14T10:59:41.503Z,16.17
2019-04-14T11:03:48.375Z,18.40
2019-04-14T11:07:55.393Z,16.87
2019-04-14T11:12:02.373Z,17.50
2019-04-14T11:16:09.089Z,18.00
2019-04-14T11:20:16.486Z,16.33
2019-04-14T11:24:24.203Z,17.13
2019-04-14T11:28:34.146Z,17.40
2019-04-14T11:32:49.728Z,17.27
2019-04-14T11:37:28.673Z,15.83
2019-04-14T11:41:35.479Z,16.73
2019-04-14T11:45:42.351Z,15.70
2019-04-14T11:49:49.221Z,15.97
2019-04-14T11:53:56.084Z,16.20
2019-04-14T11:58:03.096Z,16.33
2019-04-14T12:02:19.262Z,16.10
2019-04-14T12:06:38.598Z,16.17
2019-04-14T12:10:45.417Z,18.37
2019-04-14T12:14:52.237Z,16.13
2019-04-14T12:18:59.082Z,16.27
2019-04-14T12:23:05.869Z,17.47
2019-04-14T12:27:13.037Z,17.87
2019-04-14T12:31:20.219Z,18.63
2019-04-14T12:35:30.056Z,18.07
2019-04-14T12:39:36.980Z,18.03
2019-04-14T12:44:11.744Z,16.53
2019-04-14T12:48:37.649Z,18.77
2019-04-14T12:52:45.899Z,16.47
2019-04-14T12:56:52.696Z,18.17
2019-04-14T13:01:04.864Z,20.00
2019-04-14T13:05:11.622Z,17.13
2019-04-14T13:09:18.333Z,17.70
2019-04-14T13:13:25.056Z,16.73
2019-04-14T13:17:31.820Z,16.83
2019-04-14T13:21:40.562Z,16.53
2019-04-14T13:25:47.612Z,17.10
2019-04-14T13:29:56.606Z,15.57
2019-04-14T13:34:05.085Z,15.93
2019-04-14T13:38:11.979Z,15.60
2019-04-14T13:42:18.846Z,15.10
2019-04-14T13:46:25.836Z,15.33
2019-04-14T13:50:32.599Z,14.53
2019-04-14T13:54:39.334Z,14.13
2019-04-14T13:58:46.124Z,13.60
2019-04-14T14:02:52.943Z,13.20
2019-04-14T14:06:59.768Z,13.97
2019-04-14T14:11:17.883Z,11.90
2019-04-14T14:15:45.950Z,13.87
2019-04-14T14:20:07.537Z,11.33
2019-04-14T14:24:47.246Z,11.87
2019-04-14T14:28:57.003Z,11.73
2019-04-14T14:33:05.145Z,11.50
2019-04-14T14:37:13.511Z,11.23
2019-04-14T14:41:21.230Z,12.17
2019-04-14T14:45:59.946Z,10.83
2019-04-14T14:50:29.559Z,14.53
2019-04-14T14:54:37.660Z,12.93
2019-04-14T14:58:46.282Z,12.30
2019-04-14T15:02:56.577Z,11.30
2019-04-14T15:07:03.563Z,12.10
2019-04-14T15:11:10.478Z,10.20
2019-04-14T15:15:17.506Z,11.53
2019-04-14T15:19:24.650Z,12.77
2019-04-14T15:23:31.581Z,12.77
2019-04-14T15:27:38.487Z,13.90
2019-04-14T15:31:45.301Z,13.60
2019-04-14T15:35:52.114Z,13.00
2019-04-14T15:39:58.944Z,14.47
2019-04-14T15:44:07.685Z,11.97
2019-04-14T15:48:25.265Z,13.07
2019-04-14T15:52:33.890Z,12.27
2019-04-14T15:57:05.908Z,12.73
2019-04-14T16:01:33.342Z,11.63
2019-04-14T16:06:04.144Z,12.60
2019-04-14T16:10:34.862Z,14.07
2019-04-14T16:15:03.217Z,13.93
2019-04-14T16:19:35.912Z,12.40
2019-04-14T16:23:50.425Z,11.87
2019-04-14T16:28:03.102Z,11.57
2019-04-14T16:32:29.800Z,12.13
2019-04-14T16:36:42.037Z,11.93
2019-04-14T16:40:50.409Z,12.20
2019-04-14T16:45:00.556Z,11.43
2019-04-14T16:49:09.944Z,11.93
2019-04-14T16:53:31.954Z,11.30
2019-04-14T16:58:16.033Z,15.43
2019-04-14T17:02:22.961Z,11.47
2019-04-14T17:06:29.850Z,13.63
2019-04-14T17:10:36.733Z,11.83
2019-04-14T17:14:51.328Z,10.73
2019-04-14T17:19:03.730Z,11.33
2019-04-14T17:23:29.121Z,10.80
2019-04-14T17:27:40.437Z,10.07
2019-04-14T17:32:08.352Z,9.77
2019-04-14T17:36:24.691Z,10.53
2019-04-14T17:40:39.545Z,9.60
2019-04-14T17:44:54.727Z,12.00
2019-04-14T17:49:20.708Z,11.87
2019-04-14T17:53:49.287Z,11.13
2019-04-14T17:58:28.244Z,12.50
2019-04-14T18:02:58.768Z,10.60
2019-04-14T18:07:31.242Z,12.03
2019-04-14T18:12:09.632Z,10.83
2019-04-14T18:16:40.139Z,11.47
2019-04-14T18:20:51.220Z,11.77
2019-04-14T18:25:02.161Z,12.27
2019-04-14T18:29:29.142Z,9.43
2019-04-14T18:34:00.094Z,9.77
2019-04-14T18:38:35.094Z,7.77
2019-04-14T18:43:01.765Z,6.73
2019-04-14T18:47:22.050Z,6.60
2019-04-14T18:51:35.437Z,7.23
2019-04-14T18:56:11.231Z,6.60
2019-04-14T19:00:42.738Z,7.03
2019-04-14T19:04:49.533Z,6.87
2019-04-14T19:08:57.261Z,6.63
2019-04-14T19:13:13.675Z,6.77
2019-04-14T19:17:31.674Z,6.00
2019-04-14T19:21:38.514Z,6.40
2019-04-14T19:25:45.661Z,7.47
2019-04-14T19:29:52.624Z,6.43
2019-04-14T19:33:59.338Z,6.90
2019-04-14T19:38:07.967Z,6.03
2019-04-14T19:42:15.186Z,5.97
2019-04-14T19:46:22.081Z,6.53
2019-04-14T19:50:29.258Z,6.20
2019-04-14T19:54:36.147Z,7.13
2019-04-14T19:58:43.145Z,6.37
2019-04-14T20:02:50.205Z,8.20
2019-04-14T20:06:56.944Z,7.63
2019-04-14T20:11:03.675Z,6.73
2019-04-14T20:15:30.803Z,7.93
2019-04-14T20:19:55.063Z,7.57
2019-04-14T20:24:18.868Z,7.20
2019-04-14T20:28:40.037Z,7.03
2019-04-14T20:32:47.056Z,7.93
2019-04-14T20:36:53.756Z,7.87
2019-04-14T20:41:04.617Z,7.50
2019-04-14T20:45:14.245Z,7.93
2019-04-14T20:49:21.128Z,8.27
2019-04-14T20:53:28.302Z,7.73
2019-04-14T20:57:35.105Z,7.70
2019-04-14T21:01:45.237Z,10.10
2019-04-14T21:06:23.213Z,9.30
2019-04-14T21:10:44.161Z,8.83
2019-04-14T21:15:26.946Z,9.33
2019-04-14T21:20:06.732Z,8.13
2019-04-14T21:24:40.521Z,9.30
2019-04-14T21:28:51.314Z,8.27
2019-04-14T21:33:10.702Z,8.67
2019-04-14T21:37:32.720Z,8.87
2019-04-14T21:41:39.377Z,9.20
2019-04-14T21:45:46.230Z,9.10
2019-04-14T21:49:53.541Z,9.30
2019-04-14T21:54:01.871Z,10.87
2019-04-14T21:58:42.632Z,10.47
2019-04-14T22:03:10.586Z,8.80
2019-04-14T22:07:51.544Z,11.17
2019-04-14T22:11:58.739Z,12.37
2019-04-14T22:16:05.660Z,9.67
2019-04-14T22:20:12.478Z,10.07
2019-04-14T22:24:19.909Z,10.17
2019-04-14T22:28:26.724Z,10.00
2019-04-14T22:32:47.117Z,10.77
2019-04-14T22:36:53.894Z,12.70
2019-04-14T22:41:10.120Z,13.57
2019-04-14T22:45:17.118Z,13.77
2019-04-14T22:49:23.885Z,13.20
2019-04-14T22:53:32.953Z,12.33
2019-04-14T22:57:40.028Z,13.70
2019-04-14T23:01:54.791Z,13.57
2019-04-14T23:06:23.596Z,15.10
2019-04-14T23:10:44.968Z,16.03
2019-04-14T23:15:03.588Z,13.80
2019-04-14T23:19:17.836Z,14.30
2019-04-14T23:23:43.522Z,13.87
2019-04-14T23:27:50.296Z,14.43
2019-04-14T23:31:57.214Z,14.50
2019-04-14T23:36:04.332Z,14.23
2019-04-14T23:40:13.019Z,14.20
2019-04-14T23:44:19.793Z,14.87
2019-04-14T23:48:26.588Z,15.73
2019-04-14T23:52:33.446Z,16.93
2019-04-14T23:56:40.148Z,14.73
